sensor_id;sensor_type;location;lat;lon;timestamp;temperature;humidity
1411;DHT22;700;51.906;8.404;2023-10-13T00:04:47;19.00;99.90
1411;DHT22;700;51.906;8.404;2023-10-13T00:09:52;19.10;99.90
1411;DHT22;700;51.906;8.404;2023-10-13T00:14:54;19.10;99.90
1411;DHT22;700;51.906;8.404;2023-10-13T00:19:54;19.10;99.90
1411;DHT22;700;51.906;8.404;2023-10-13T00:24:56;19.30;99.90
1411;DHT22;700;51.906;8.404;2023-10-13T00:30:02;19.10;99.90
1411;DHT22;700;51.906;8.404;2023-10-13T00:35:17;19.20;99.90
1411;DHT22;700;51.906;8.404;2023-10-13T00:40:40;19.20;99.90
1411;DHT22;700;51.906;8.404;2023-10-13T00:45:40;19.20;99.90
1411;DHT22;700;51.906;8.404;2023-10-13T00:50:44;19.30;99.90
1411;DHT22;700;51.906;8.404;2023-10-13T00:55:47;19.30;99.90
1411;DHT22;700;51.906;8.404;2023-10-13T01:00:49;19.40;99.90
1411;DHT22;700;51.906;8.404;2023-10-13T01:05:59;19.40;99.90
1411;DHT22;700;51.906;8.404;2023-10-13T01:11:02;19.40;99.90
1411;DHT22;700;51.906;8.404;2023-10-13T01:16:06;19.40;99.90
1411;DHT22;700;51.906;8.404;2023-10-13T01:21:07;19.40;99.90
1411;DHT22;700;51.906;8.404;2023-10-13T01:26:09;19.40;99.90
1411;DHT22;700;51.906;8.404;2023-10-13T01:31:14;19.30;99.90
1411;DHT22;700;51.906;8.404;2023-10-13T01:36:26;19.30;99.90
1411;DHT22;700;51.906;8.404;2023-10-13T01:41:27;19.30;99.90
1411;DHT22;700;51.906;8.404;2023-10-13T01:46:34;19.40;99.90
1411;DHT22;700;51.906;8.404;2023-10-13T01:51:37;19.40;99.90
1411;DHT22;700;51.906;8.404;2023-10-13T01:56:40;19.50;99.90
1411;DHT22;700;51.906;8.404;2023-10-13T02:01:44;19.30;99.90
1411;DHT22;700;51.906;8.404;2023-10-13T02:06:45;19.20;99.90
1411;DHT22;700;51.906;8.404;2023-10-13T02:11:45;19.30;99.90
1411;DHT22;700;51.906;8.404;2023-10-13T02:16:46;19.50;99.90
1411;DHT22;700;51.906;8.404;2023-10-13T02:21:48;19.50;99.90
1411;DHT22;700;51.906;8.404;2023-10-13T02:26:59;19.50;99.90
1411;DHT22;700;51.906;8.404;2023-10-13T02:32:06;19.50;99.90
1411;DHT22;700;51.906;8.404;2023-10-13T02:37:13;19.40;99.90
1411;DHT22;700;51.906;8.404;2023-10-13T02:42:14;19.40;99.90
1411;DHT22;700;51.906;8.404;2023-10-13T02:47:23;19.40;99.90
1411;DHT22;700;51.906;8.404;2023-10-13T02:52:24;19.40;99.90
1411;DHT22;700;51.906;8.404;2023-10-13T02:57:25;19.30;99.90
1411;DHT22;700;51.906;8.404;2023-10-13T03:02:27;19.00;99.90
1411;DHT22;700;51.906;8.404;2023-10-13T03:07:33;19.10;99.90
1411;DHT22;700;51.906;8.404;2023-10-13T03:12:33;19.20;99.90
1411;DHT22;700;51.906;8.404;2023-10-13T03:17:34;19.10;99.90
1411;DHT22;700;51.906;8.404;2023-10-13T03:22:43;19.10;99.90
1411;DHT22;700;51.906;8.404;2023-10-13T03:27:46;19.20;99.90
1411;DHT22;700;51.906;8.404;2023-10-13T03:32:53;19.10;99.90
1411;DHT22;700;51.906;8.404;2023-10-13T03:37:57;19.30;99.90
1411;DHT22;700;51.906;8.404;2023-10-13T03:42:58;19.40;99.90
1411;DHT22;700;51.906;8.404;2023-10-13T03:48:12;19.40;99.90
1411;DHT22;700;51.906;8.404;2023-10-13T03:53:31;19.50;99.90
1411;DHT22;700;51.906;8.404;2023-10-13T03:58:36;19.60;99.90
1411;DHT22;700;51.906;8.404;2023-10-13T04:03:40;19.40;99.90
1411;DHT22;700;51.906;8.404;2023-10-13T04:08:57;19.50;99.90
1411;DHT22;700;51.906;8.404;2023-10-13T04:14:19;19.50;99.90
1411;DHT22;700;51.906;8.404;2023-10-13T04:19:42;19.40;99.90
1411;DHT22;700;51.906;8.404;2023-10-13T04:25:01;19.40;99.90
1411;DHT22;700;51.906;8.404;2023-10-13T04:30:24;19.40;99.90
1411;DHT22;700;51.906;8.404;2023-10-13T04:35:30;19.20;99.90
1411;DHT22;700;51.906;8.404;2023-10-13T04:40:41;19.20;99.90
1411;DHT22;700;51.906;8.404;2023-10-13T04:46:01;19.30;99.90
1411;DHT22;700;51.906;8.404;2023-10-13T04:51:24;19.30;99.90
1411;DHT22;700;51.906;8.404;2023-10-13T04:56:45;19.00;99.90
1411;DHT22;700;51.906;8.404;2023-10-13T05:01:58;19.00;99.90
1411;DHT22;700;51.906;8.404;2023-10-13T05:07:20;18.80;99.90
1411;DHT22;700;51.906;8.404;2023-10-13T05:12:42;18.90;99.90
1411;DHT22;700;51.906;8.404;2023-10-13T05:18:02;19.00;99.90
1411;DHT22;700;51.906;8.404;2023-10-13T05:23:21;19.00;99.90
1411;DHT22;700;51.906;8.404;2023-10-13T05:28:42;19.00;99.90
1411;DHT22;700;51.906;8.404;2023-10-13T05:34:01;19.10;99.90
1411;DHT22;700;51.906;8.404;2023-10-13T05:39:20;19.00;99.90
1411;DHT22;700;51.906;8.404;2023-10-13T05:44:39;19.10;99.90
1411;DHT22;700;51.906;8.404;2023-10-13T05:49:56;19.20;99.90
1411;DHT22;700;51.906;8.404;2023-10-13T05:55:29;19.30;99.90
1411;DHT22;700;51.906;8.404;2023-10-13T06:00:48;19.40;99.90
1411;DHT22;700;51.906;8.404;2023-10-13T06:06:08;19.30;99.90
1411;DHT22;700;51.906;8.404;2023-10-13T06:11:27;19.30;99.90
1411;DHT22;700;51.906;8.404;2023-10-13T06:16:46;19.20;99.90
1411;DHT22;700;51.906;8.404;2023-10-13T06:22:08;19.20;99.90
1411;DHT22;700;51.906;8.404;2023-10-13T06:27:27;19.30;99.90
1411;DHT22;700;51.906;8.404;2023-10-13T06:32:46;19.30;99.90
1411;DHT22;700;51.906;8.404;2023-10-13T06:37:47;19.10;99.90
1411;DHT22;700;51.906;8.404;2023-10-13T06:42:53;19.20;99.90
1411;DHT22;700;51.906;8.404;2023-10-13T06:47:55;19.20;99.90
1411;DHT22;700;51.906;8.404;2023-10-13T06:52:58;19.30;99.90
1411;DHT22;700;51.906;8.404;2023-10-13T06:58:02;19.10;99.90
1411;DHT22;700;51.906;8.404;2023-10-13T07:03:09;19.00;99.90
1411;DHT22;700;51.906;8.404;2023-10-13T07:08:18;19.10;99.90
1411;DHT22;700;51.906;8.404;2023-10-13T07:13:21;19.00;99.90
1411;DHT22;700;51.906;8.404;2023-10-13T07:18:22;19.20;99.90
1411;DHT22;700;51.906;8.404;2023-10-13T07:23:25;19.00;99.90
1411;DHT22;700;51.906;8.404;2023-10-13T07:28:25;19.00;99.90
1411;DHT22;700;51.906;8.404;2023-10-13T07:33:26;19.20;99.90
1411;DHT22;700;51.906;8.404;2023-10-13T07:38:27;19.40;99.90
1411;DHT22;700;51.906;8.404;2023-10-13T07:43:31;19.50;99.90
1411;DHT22;700;51.906;8.404;2023-10-13T07:48:33;19.50;99.90
1411;DHT22;700;51.906;8.404;2023-10-13T07:53:34;19.50;99.90
1411;DHT22;700;51.906;8.404;2023-10-13T07:58:43;19.70;99.90
1411;DHT22;700;51.906;8.404;2023-10-13T08:04:00;20.10;99.90
1411;DHT22;700;51.906;8.404;2023-10-13T08:09:12;20.30;99.90
1411;DHT22;700;51.906;8.404;2023-10-13T08:14:43;20.40;99.90
1411;DHT22;700;51.906;8.404;2023-10-13T08:19:44;20.30;99.90
1411;DHT22;700;51.906;8.404;2023-10-13T08:24:46;20.70;99.90
1411;DHT22;700;51.906;8.404;2023-10-13T08:29:49;21.20;99.90
1411;DHT22;700;51.906;8.404;2023-10-13T08:34:58;21.40;99.90
1411;DHT22;700;51.906;8.404;2023-10-13T08:40:02;21.70;99.90
1411;DHT22;700;51.906;8.404;2023-10-13T08:45:12;21.90;99.90
1411;DHT22;700;51.906;8.404;2023-10-13T08:50:30;22.20;99.90
1411;DHT22;700;51.906;8.404;2023-10-13T08:55:49;23.80;99.90
1411;DHT22;700;51.906;8.404;2023-10-13T09:01:05;24.70;99.90
1411;DHT22;700;51.906;8.404;2023-10-13T09:06:15;26.50;99.90
1411;DHT22;700;51.906;8.404;2023-10-13T09:11:23;29.00;99.90
1411;DHT22;700;51.906;8.404;2023-10-13T09:16:27;29.40;99.90
1411;DHT22;700;51.906;8.404;2023-10-13T09:21:41;31.70;99.90
1411;DHT22;700;51.906;8.404;2023-10-13T09:26:42;32.00;99.90
1411;DHT22;700;51.906;8.404;2023-10-13T09:31:44;30.00;99.90
1411;DHT22;700;51.906;8.404;2023-10-13T09:36:47;30.60;99.90
1411;DHT22;700;51.906;8.404;2023-10-13T09:41:48;28.70;99.90
1411;DHT22;700;51.906;8.404;2023-10-13T09:46:54;27.60;99.90
1411;DHT22;700;51.906;8.404;2023-10-13T09:52:03;25.80;99.90
1411;DHT22;700;51.906;8.404;2023-10-13T09:57:10;25.10;99.90
1411;DHT22;700;51.906;8.404;2023-10-13T10:02:19;24.80;99.90
1411;DHT22;700;51.906;8.404;2023-10-13T10:07:28;24.70;99.90
1411;DHT22;700;51.906;8.404;2023-10-13T10:12:47;25.20;99.90
1411;DHT22;700;51.906;8.404;2023-10-13T10:17:49;25.70;99.90
1411;DHT22;700;51.906;8.404;2023-10-13T10:22:57;25.80;99.90
1411;DHT22;700;51.906;8.404;2023-10-13T10:28:05;26.20;99.90
1411;DHT22;700;51.906;8.404;2023-10-13T10:33:06;26.50;99.90
1411;DHT22;700;51.906;8.404;2023-10-13T10:38:13;25.90;99.90
1411;DHT22;700;51.906;8.404;2023-10-13T10:43:37;26.40;99.90
1411;DHT22;700;51.906;8.404;2023-10-13T10:48:47;26.60;99.90
1411;DHT22;700;51.906;8.404;2023-10-13T10:53:49;27.40;99.90
1411;DHT22;700;51.906;8.404;2023-10-13T10:58:57;27.00;99.90
1411;DHT22;700;51.906;8.404;2023-10-13T11:04:02;27.00;99.90
1411;DHT22;700;51.906;8.404;2023-10-13T11:09:08;27.40;99.90
1411;DHT22;700;51.906;8.404;2023-10-13T11:14:30;27.70;99.90
1411;DHT22;700;51.906;8.404;2023-10-13T11:19:34;27.50;99.90
1411;DHT22;700;51.906;8.404;2023-10-13T11:24:42;26.80;99.90
1411;DHT22;700;51.906;8.404;2023-10-13T11:29:42;26.70;99.90
1411;DHT22;700;51.906;8.404;2023-10-13T11:34:52;26.60;99.90
1411;DHT22;700;51.906;8.404;2023-10-13T11:39:55;26.70;99.90
1411;DHT22;700;51.906;8.404;2023-10-13T11:44:55;27.60;99.90
1411;DHT22;700;51.906;8.404;2023-10-13T11:50:18;27.60;99.90
1411;DHT22;700;51.906;8.404;2023-10-13T11:55:33;27.20;99.90
1411;DHT22;700;51.906;8.404;2023-10-13T12:00:37;27.20;99.90
1411;DHT22;700;51.906;8.404;2023-10-13T12:06:18;26.70;99.90
1411;DHT22;700;51.906;8.404;2023-10-13T12:11:39;26.60;99.90
1411;DHT22;700;51.906;8.404;2023-10-13T12:16:45;26.50;99.90
1411;DHT22;700;51.906;8.404;2023-10-13T12:21:57;26.30;99.90
1411;DHT22;700;51.906;8.404;2023-10-13T12:27:00;26.10;99.90
1411;DHT22;700;51.906;8.404;2023-10-13T12:32:01;26.80;99.90
1411;DHT22;700;51.906;8.404;2023-10-13T12:37:08;27.10;99.90
1411;DHT22;700;51.906;8.404;2023-10-13T12:42:28;26.90;99.90
1411;DHT22;700;51.906;8.404;2023-10-13T12:47:48;27.00;99.90
1411;DHT22;700;51.906;8.404;2023-10-13T12:53:09;27.30;99.90
1411;DHT22;700;51.906;8.404;2023-10-13T12:58:14;27.00;99.90
1411;DHT22;700;51.906;8.404;2023-10-13T13:03:15;27.90;99.90
1411;DHT22;700;51.906;8.404;2023-10-13T13:08:20;28.50;99.90
1411;DHT22;700;51.906;8.404;2023-10-13T13:13:23;30.30;99.90
1411;DHT22;700;51.906;8.404;2023-10-13T13:18:26;31.60;99.90
1411;DHT22;700;51.906;8.404;2023-10-13T13:23:26;31.80;99.20
1411;DHT22;700;51.906;8.404;2023-10-13T13:28:28;31.00;98.30
1411;DHT22;700;51.906;8.404;2023-10-13T13:33:38;29.30;99.90
1411;DHT22;700;51.906;8.404;2023-10-13T13:38:43;28.60;99.90
1411;DHT22;700;51.906;8.404;2023-10-13T13:43:52;29.70;99.90
1411;DHT22;700;51.906;8.404;2023-10-13T13:48:58;29.30;99.90
1411;DHT22;700;51.906;8.404;2023-10-13T13:54:00;29.50;99.90
1411;DHT22;700;51.906;8.404;2023-10-13T13:59:03;29.20;99.90
1411;DHT22;700;51.906;8.404;2023-10-13T14:04:11;28.80;99.90
1411;DHT22;700;51.906;8.404;2023-10-13T14:09:17;29.00;99.90
1411;DHT22;700;51.906;8.404;2023-10-13T14:14:38;28.60;99.90
1411;DHT22;700;51.906;8.404;2023-10-13T14:19:46;27.30;99.90
1411;DHT22;700;51.906;8.404;2023-10-13T14:24:47;26.90;99.90
1411;DHT22;700;51.906;8.404;2023-10-13T14:29:52;26.50;99.90
1411;DHT22;700;51.906;8.404;2023-10-13T14:34:53;26.40;99.90
1411;DHT22;700;51.906;8.404;2023-10-13T14:39:57;26.20;99.90
1411;DHT22;700;51.906;8.404;2023-10-13T14:45:00;26.00;99.90
1411;DHT22;700;51.906;8.404;2023-10-13T14:50:01;25.60;99.90
1411;DHT22;700;51.906;8.404;2023-10-13T14:55:08;25.70;99.90
1411;DHT22;700;51.906;8.404;2023-10-13T15:00:19;25.60;99.90
1411;DHT22;700;51.906;8.404;2023-10-13T15:05:25;25.70;99.90
1411;DHT22;700;51.906;8.404;2023-10-13T15:10:28;25.70;99.90
1411;DHT22;700;51.906;8.404;2023-10-13T15:15:31;25.60;99.90
1411;DHT22;700;51.906;8.404;2023-10-13T15:20:39;25.60;99.90
1411;DHT22;700;51.906;8.404;2023-10-13T15:25:40;25.50;99.90
1411;DHT22;700;51.906;8.404;2023-10-13T15:30:49;25.20;99.90
1411;DHT22;700;51.906;8.404;2023-10-13T15:35:59;25.00;99.90
1411;DHT22;700;51.906;8.404;2023-10-13T15:41:00;25.30;99.90
1411;DHT22;700;51.906;8.404;2023-10-13T15:46:14;25.10;99.90
1411;DHT22;700;51.906;8.404;2023-10-13T15:51:16;25.00;99.90
1411;DHT22;700;51.906;8.404;2023-10-13T15:56:17;24.80;99.90
1411;DHT22;700;51.906;8.404;2023-10-13T16:01:17;24.80;99.90
1411;DHT22;700;51.906;8.404;2023-10-13T16:06:19;24.80;99.90
1411;DHT22;700;51.906;8.404;2023-10-13T16:11:20;24.70;99.90
1411;DHT22;700;51.906;8.404;2023-10-13T16:16:21;24.50;99.90
1411;DHT22;700;51.906;8.404;2023-10-13T16:21:27;24.60;99.90
1411;DHT22;700;51.906;8.404;2023-10-13T16:26:35;24.30;99.90
1411;DHT22;700;51.906;8.404;2023-10-13T16:31:38;24.50;99.90
1411;DHT22;700;51.906;8.404;2023-10-13T16:36:38;24.60;99.90
1411;DHT22;700;51.906;8.404;2023-10-13T16:41:42;24.50;99.90
1411;DHT22;700;51.906;8.404;2023-10-13T16:46:45;24.50;99.90
1411;DHT22;700;51.906;8.404;2023-10-13T16:51:45;24.30;99.90
1411;DHT22;700;51.906;8.404;2023-10-13T16:56:48;24.30;99.90
1411;DHT22;700;51.906;8.404;2023-10-13T17:01:51;24.40;99.90
1411;DHT22;700;51.906;8.404;2023-10-13T17:06:51;24.30;99.90
1411;DHT22;700;51.906;8.404;2023-10-13T17:11:54;24.30;99.90
1411;DHT22;700;51.906;8.404;2023-10-13T17:16:58;24.30;99.90
1411;DHT22;700;51.906;8.404;2023-10-13T17:21:58;24.40;99.90
1411;DHT22;700;51.906;8.404;2023-10-13T17:27:00;24.30;99.90
1411;DHT22;700;51.906;8.404;2023-10-13T17:32:03;24.10;99.90
1411;DHT22;700;51.906;8.404;2023-10-13T17:37:04;24.00;99.90
1411;DHT22;700;51.906;8.404;2023-10-13T17:42:05;24.00;99.90
1411;DHT22;700;51.906;8.404;2023-10-13T17:47:05;23.90;99.90
1411;DHT22;700;51.906;8.404;2023-10-13T17:52:10;23.70;99.90
1411;DHT22;700;51.906;8.404;2023-10-13T17:57:12;23.70;99.90
1411;DHT22;700;51.906;8.404;2023-10-13T18:02:16;23.60;99.90
1411;DHT22;700;51.906;8.404;2023-10-13T18:07:19;23.30;99.90
1411;DHT22;700;51.906;8.404;2023-10-13T18:12:29;23.30;99.90
1411;DHT22;700;51.906;8.404;2023-10-13T18:17:31;23.20;99.90
1411;DHT22;700;51.906;8.404;2023-10-13T18:22:32;23.10;99.90
1411;DHT22;700;51.906;8.404;2023-10-13T18:27:35;22.90;99.90
1411;DHT22;700;51.906;8.404;2023-10-13T18:32:43;22.80;99.90
1411;DHT22;700;51.906;8.404;2023-10-13T18:37:44;22.60;99.90
1411;DHT22;700;51.906;8.404;2023-10-13T18:42:45;22.70;99.90
1411;DHT22;700;51.906;8.404;2023-10-13T18:47:52;22.70;99.90
1411;DHT22;700;51.906;8.404;2023-10-13T18:52:52;22.80;99.90
1411;DHT22;700;51.906;8.404;2023-10-13T18:57:53;22.60;99.90
1411;DHT22;700;51.906;8.404;2023-10-13T19:02:55;22.50;99.90
1411;DHT22;700;51.906;8.404;2023-10-13T19:07:56;22.40;99.90
1411;DHT22;700;51.906;8.404;2023-10-13T19:12:59;22.20;99.90
1411;DHT22;700;51.906;8.404;2023-10-13T19:18:03;22.20;99.90
1411;DHT22;700;51.906;8.404;2023-10-13T19:23:03;22.20;99.90
1411;DHT22;700;51.906;8.404;2023-10-13T19:28:04;22.40;99.90
1411;DHT22;700;51.906;8.404;2023-10-13T19:33:07;22.00;99.90
1411;DHT22;700;51.906;8.404;2023-10-13T19:38:08;22.20;99.90
1411;DHT22;700;51.906;8.404;2023-10-13T19:43:09;21.90;99.90
1411;DHT22;700;51.906;8.404;2023-10-13T19:48:12;22.10;99.90
1411;DHT22;700;51.906;8.404;2023-10-13T19:53:13;22.10;99.90
1411;DHT22;700;51.906;8.404;2023-10-13T19:58:16;22.00;99.90
1411;DHT22;700;51.906;8.404;2023-10-13T20:03:17;21.80;99.90
1411;DHT22;700;51.906;8.404;2023-10-13T20:08:20;21.80;99.90
1411;DHT22;700;51.906;8.404;2023-10-13T20:13:21;21.80;99.90
1411;DHT22;700;51.906;8.404;2023-10-13T20:18:26;21.80;99.90
1411;DHT22;700;51.906;8.404;2023-10-13T20:23:30;22.00;99.90
1411;DHT22;700;51.906;8.404;2023-10-13T20:28:31;21.90;99.90
1411;DHT22;700;51.906;8.404;2023-10-13T20:33:31;21.60;99.90
1411;DHT22;700;51.906;8.404;2023-10-13T20:38:37;21.30;99.90
1411;DHT22;700;51.906;8.404;2023-10-13T20:43:38;21.00;99.90
1411;DHT22;700;51.906;8.404;2023-10-13T20:48:39;20.90;99.90
1411;DHT22;700;51.906;8.404;2023-10-13T20:53:42;20.90;99.90
1411;DHT22;700;51.906;8.404;2023-10-13T20:58:44;20.80;99.90
1411;DHT22;700;51.906;8.404;2023-10-13T21:03:49;20.60;99.90
1411;DHT22;700;51.906;8.404;2023-10-13T21:08:52;20.80;99.90
1411;DHT22;700;51.906;8.404;2023-10-13T21:13:55;20.50;99.90
1411;DHT22;700;51.906;8.404;2023-10-13T21:18:56;19.90;99.90
1411;DHT22;700;51.906;8.404;2023-10-13T21:23:57;19.70;99.90
1411;DHT22;700;51.906;8.404;2023-10-13T21:28:59;19.70;99.90
1411;DHT22;700;51.906;8.404;2023-10-13T21:34:01;20.00;99.90
1411;DHT22;700;51.906;8.404;2023-10-13T21:39:06;19.90;99.90
1411;DHT22;700;51.906;8.404;2023-10-13T21:44:10;19.70;99.90
1411;DHT22;700;51.906;8.404;2023-10-13T21:49:12;19.50;99.90
1411;DHT22;700;51.906;8.404;2023-10-13T21:54:13;19.40;99.90
1411;DHT22;700;51.906;8.404;2023-10-13T21:59:17;19.30;99.90
1411;DHT22;700;51.906;8.404;2023-10-13T22:04:18;19.20;99.90
1411;DHT22;700;51.906;8.404;2023-10-13T22:09:25;18.90;99.90
1411;DHT22;700;51.906;8.404;2023-10-13T22:14:25;18.70;99.90
1411;DHT22;700;51.906;8.404;2023-10-13T22:19:26;18.80;99.90
1411;DHT22;700;51.906;8.404;2023-10-13T22:24:29;18.80;99.90
1411;DHT22;700;51.906;8.404;2023-10-13T22:29:33;19.00;99.90
1411;DHT22;700;51.906;8.404;2023-10-13T22:34:36;19.00;99.90
1411;DHT22;700;51.906;8.404;2023-10-13T22:39:37;19.20;99.90
1411;DHT22;700;51.906;8.404;2023-10-13T22:44:40;19.30;99.90
1411;DHT22;700;51.906;8.404;2023-10-13T22:49:43;19.40;99.90
1411;DHT22;700;51.906;8.404;2023-10-13T22:54:43;19.50;99.90
1411;DHT22;700;51.906;8.404;2023-10-13T22:59:45;19.60;99.90
1411;DHT22;700;51.906;8.404;2023-10-13T23:04:48;19.70;99.90
1411;DHT22;700;51.906;8.404;2023-10-13T23:09:51;19.70;99.90
1411;DHT22;700;51.906;8.404;2023-10-13T23:14:52;19.80;99.90
1411;DHT22;700;51.906;8.404;2023-10-13T23:19:52;19.60;99.90
1411;DHT22;700;51.906;8.404;2023-10-13T23:24:56;19.70;99.90
1411;DHT22;700;51.906;8.404;2023-10-13T23:29:59;19.80;99.90
1411;DHT22;700;51.906;8.404;2023-10-13T23:35:05;19.90;99.90
1411;DHT22;700;51.906;8.404;2023-10-13T23:40:06;19.90;99.90
1411;DHT22;700;51.906;8.404;2023-10-13T23:45:22;19.90;99.90
1411;DHT22;700;51.906;8.404;2023-10-13T23:50:26;19.90;99.90
1411;DHT22;700;51.906;8.404;2023-10-13T23:55:32;19.90;99.90
